Naval Amphibious Base, Virginia
Current Conditions -  °F | °C
As of 11:51 PM on Saturday 25 Oct 2014 (Local Time) from KORF Reporting Station
Clear Clear  
Wind Chill: 61°   Ceiling: Unl
Heat Index: 61°   Visibility: 10mi
Dew Point: 44°   Wind: 15mph
Humidity: 54%   Direction: 230°SW
Pressure: 29.77"   Gusts: NA
Location:  36.9184°N, 76.1571°W
Report Text: KORF 260351Z AUTO 23013KT 10SM CLR 16/07 A2977 RMK AO2 SLP080 T01610067 TSNO $
Loading
Personal Weather Stations






























Interactive Weather Map
Tropical Storm Tracking
New forecast layout! Learn more

10-Day Weather Forecast

Advertisements
Track Severe Weather on mobile